Time;durP1;ratioP1;P1;durP2;ratioP2;P2;SDS_P1;SDS_P2;PMS_P1;PMS_P2;Temp;Humidity;BMP_temperature;BMP_pressure;BME280_temperature;BME280_humidity;BME280_pressure;Samples;Min_cycle;Max_cycle;Signal;HPM_P1;HPM_P2
2022/10/24 00:00:06;;;;;;;3.05;1.27;;;14.60;99.90;;;;;;5040480;28;20273;-76
2022/10/24 00:02:33;;;;;;;4.88;1.63;;;14.50;99.90;;;;;;5038689;28;20053;-77
2022/10/24 00:05:00;;;;;;;2.30;1.05;;;14.50;99.90;;;;;;5035544;28;20535;-76
2022/10/24 00:07:26;;;;;;;2.38;0.95;;;14.40;99.90;;;;;;5038438;28;20091;-76
2022/10/24 00:09:53;;;;;;;2.13;1.40;;;14.30;99.90;;;;;;5042640;28;20496;-76
2022/10/24 00:12:20;;;;;;;2.60;1.23;;;14.30;99.90;;;;;;5041486;28;20049;-76
2022/10/24 00:14:52;;;;;;;2.47;1.10;;;14.30;99.90;;;;;;5037345;28;20053;-76
2022/10/24 00:17:19;;;;;;;2.75;1.13;;;14.20;99.90;;;;;;5021276;28;20068;-76
2022/10/24 00:19:45;;;;;;;3.50;1.38;;;14.20;99.90;;;;;;5020896;28;20700;-77
2022/10/24 00:22:12;;;;;;;2.45;1.05;;;14.20;99.90;;;;;;5032618;28;20049;-76
2022/10/24 00:24:39;;;;;;;2.60;1.10;;;14.20;99.90;;;;;;5037306;28;20049;-75
2022/10/24 00:27:08;;;;;;;4.82;1.42;;;14.20;99.90;;;;;;5021327;28;20060;-76
2022/10/24 00:29:35;;;;;;;3.42;1.45;;;14.20;99.90;;;;;;5005018;28;20060;-76
2022/10/24 00:32:02;;;;;;;2.10;1.15;;;14.20;99.90;;;;;;5029659;28;20358;-77
2022/10/24 00:34:28;;;;;;;2.42;1.10;;;14.20;99.90;;;;;;5042035;28;20063;-76
2022/10/24 00:36:55;;;;;;;3.05;1.35;;;14.10;99.90;;;;;;5043596;28;20140;-76
2022/10/24 00:39:22;;;;;;;6.35;1.20;;;14.10;99.90;;;;;;5041151;28;20053;-76
2022/10/24 00:41:49;;;;;;;3.88;1.50;;;14.10;99.90;;;;;;5036889;28;20054;-77
2022/10/24 00:44:23;;;;;;;4.85;1.33;;;14.10;99.90;;;;;;5021297;28;20096;-76
2022/10/24 00:46:58;;;;;;;2.83;1.50;;;14.00;99.90;;;;;;5021507;28;20054;-76
2022/10/24 00:49:29;;;;;;;3.53;1.38;;;14.00;99.90;;;;;;5005216;28;20052;-76
2022/10/24 00:52:02;;;;;;;2.88;1.20;;;14.00;99.90;;;;;;5008270;28;20049;-76
2022/10/24 00:54:29;;;;;;;2.38;1.15;;;14.00;99.90;;;;;;5034478;28;20219;-76
2022/10/24 00:57:05;;;;;;;2.92;1.20;;;14.00;99.90;;;;;;5041002;28;20044;-76
2022/10/24 00:59:32;;;;;;;3.88;1.05;;;14.00;99.90;;;;;;5020771;28;20053;-76
2022/10/24 01:01:59;;;;;;;2.25;1.17;;;14.10;99.90;;;;;;5031527;28;20136;-76
2022/10/24 01:04:26;;;;;;;2.75;1.08;;;14.10;99.90;;;;;;5041030;28;20065;-76
2022/10/24 01:07:31;;;;;;;3.70;1.23;;;14.10;99.90;;;;;;5023494;28;20060;-76
2022/10/24 01:10:16;;;;;;;4.93;1.50;;;14.00;99.90;;;;;;5003143;28;20143;-76
2022/10/24 01:13:08;;;;;;;5.28;1.77;;;14.10;99.90;;;;;;5002948;28;20150;-76
2022/10/24 01:15:48;;;;;;;6.38;1.40;;;14.10;99.90;;;;;;5035235;28;20060;-76
2022/10/24 01:18:36;;;;;;;3.58;1.13;;;14.10;99.90;;;;;;5043417;28;20295;-76
2022/10/24 01:21:26;;;;;;;6.28;1.70;;;14.10;99.90;;;;;;5027072;28;20053;-77
2022/10/24 01:24:24;;;;;;;5.53;1.92;;;14.20;99.90;;;;;;5023962;28;20098;-77
2022/10/24 01:27:00;;;;;;;3.00;1.60;;;14.10;99.90;;;;;;5025584;28;20144;-77
2022/10/24 01:29:45;;;;;;;3.78;1.73;;;14.10;99.90;;;;;;5025721;28;20049;-76
2022/10/24 01:32:43;;;;;;;3.03;1.45;;;14.10;99.90;;;;;;5035069;28;20055;-76
2022/10/24 01:35:21;;;;;;;5.03;1.73;;;14.10;99.90;;;;;;4991691;28;20079;-76
2022/10/24 01:37:56;;;;;;;4.22;1.42;;;14.10;99.90;;;;;;5042168;28;20053;-76
2022/10/24 01:40:27;;;;;;;3.80;1.30;;;14.10;99.90;;;;;;5027435;28;20052;-76
2022/10/24 01:42:55;;;;;;;6.18;2.42;;;14.10;99.90;;;;;;5042096;28;20061;-75
2022/10/24 01:45:31;;;;;;;5.47;1.25;;;14.10;99.90;;;;;;5026081;28;20050;-76
2022/10/24 01:47:59;;;;;;;4.72;1.40;;;14.10;99.90;;;;;;5010391;28;20136;-76
2022/10/24 01:50:26;;;;;;;3.60;1.08;;;14.00;99.90;;;;;;5008902;28;20394;-76
2022/10/24 01:52:54;;;;;;;5.18;1.65;;;14.00;99.90;;;;;;5025394;28;20056;-75
2022/10/24 01:55:20;;;;;;;3.47;0.98;;;14.00;99.90;;;;;;5009438;28;20373;-76
2022/10/24 01:57:47;;;;;;;2.08;0.93;;;14.10;99.90;;;;;;5010299;28;20045;-76
2022/10/24 02:00:18;;;;;;;4.47;1.55;;;14.10;99.90;;;;;;5027216;28;20041;-77
2022/10/24 02:03:28;;;;;;;2.13;0.82;;;14.10;99.90;;;;;;5052347;28;20049;-75
2022/10/24 02:05:58;;;;;;;4.03;1.05;;;14.10;99.90;;;;;;4964879;28;20058;-75
2022/10/24 02:08:28;;;;;;;2.08;1.00;;;14.00;99.90;;;;;;4965103;28;20062;-75
2022/10/24 02:10:57;;;;;;;2.28;0.80;;;14.10;99.90;;;;;;5022210;28;20610;-76
2022/10/24 02:13:38;;;;;;;3.75;1.60;;;14.10;99.90;;;;;;5024785;28;20412;-76
2022/10/24 02:16:05;;;;;;;1.80;0.90;;;14.10;99.90;;;;;;5026549;28;20045;-76
2022/10/24 02:18:32;;;;;;;4.97;1.25;;;14.10;99.90;;;;;;5025131;28;20068;-76
2022/10/24 02:21:07;;;;;;;1.77;0.80;;;14.10;99.90;;;;;;5024796;28;20045;-78
2022/10/24 02:23:36;;;;;;;2.47;0.82;;;14.10;99.90;;;;;;5024706;28;20646;-76
2022/10/24 02:26:05;;;;;;;2.38;0.90;;;14.10;99.90;;;;;;5025620;28;20132;-76
2022/10/24 02:28:33;;;;;;;0.80;0.50;;;14.10;99.90;;;;;;4992934;28;20042;-76
2022/10/24 02:31:10;;;;;;;1.10;0.60;;;14.10;99.90;;;;;;5008646;28;20067;-76
2022/10/24 02:33:38;;;;;;;2.00;0.60;;;14.10;99.90;;;;;;5024484;28;20398;-76
2022/10/24 02:36:05;;;;;;;0.88;0.50;;;14.10;99.90;;;;;;5008142;28;20052;-76
2022/10/24 02:38:35;;;;;;;2.72;0.63;;;14.00;99.90;;;;;;5008822;28;20045;-76
2022/10/24 02:41:03;;;;;;;0.77;0.68;;;14.00;99.90;;;;;;5008661;28;20125;-76
2022/10/24 02:43:30;;;;;;;0.80;0.50;;;14.00;99.90;;;;;;5037192;28;20155;-76
2022/10/24 02:45:57;;;;;;;0.95;0.55;;;13.90;99.90;;;;;;5028355;28;20057;-76
2022/10/24 02:48:29;;;;;;;0.73;0.40;;;13.80;99.90;;;;;;5027692;28;20052;-76
2022/10/24 02:50:55;;;;;;;0.50;0.43;;;13.80;99.90;;;;;;5028121;28;20590;-76
2022/10/24 02:53:23;;;;;;;0.75;0.47;;;13.80;99.90;;;;;;5008421;28;20069;-76
2022/10/24 02:55:50;;;;;;;1.52;0.50;;;13.80;99.90;;;;;;5063523;28;20067;-76
2022/10/24 02:58:17;;;;;;;2.00;0.50;;;13.70;99.90;;;;;;5047075;28;20151;-76
2022/10/24 03:00:44;;;;;;;0.90;0.40;;;13.70;99.90;;;;;;5046192;28;20136;-75
2022/10/24 03:03:11;;;;;;;0.70;0.43;;;13.80;99.90;;;;;;5041883;28;20049;-76
2022/10/24 03:05:37;;;;;;;0.85;0.40;;;13.80;99.90;;;;;;5025608;28;20085;-76
2022/10/24 03:08:04;;;;;;;1.33;0.50;;;13.80;99.90;;;;;;5025431;28;20050;-76
2022/10/24 03:10:31;;;;;;;0.68;0.40;;;13.80;99.90;;;;;;5026425;28;20054;-76
2022/10/24 03:12:59;;;;;;;0.73;0.50;;;13.80;99.90;;;;;;5025810;28;20132;-76
2022/10/24 03:15:26;;;;;;;1.42;0.70;;;13.80;99.90;;;;;;5027250;28;20136;-76
2022/10/24 03:17:52;;;;;;;1.00;0.50;;;13.80;99.90;;;;;;5025477;28;20079;-75
2022/10/24 03:20:19;;;;;;;1.63;0.60;;;13.80;99.90;;;;;;5025425;28;20045;-76
2022/10/24 03:22:46;;;;;;;1.05;0.60;;;13.80;99.90;;;;;;5027846;28;20050;-76
2022/10/24 03:25:13;;;;;;;0.60;0.43;;;13.80;99.90;;;;;;5027052;28;20049;-76
2022/10/24 03:27:40;;;;;;;1.33;0.80;;;13.80;99.90;;;;;;5026067;28;20543;-76
2022/10/24 03:30:07;;;;;;;1.60;0.68;;;13.80;99.90;;;;;;5027418;28;20057;-76
2022/10/24 03:32:34;;;;;;;1.80;0.88;;;13.80;99.90;;;;;;5028933;28;20514;-76
2022/10/24 03:35:01;;;;;;;1.15;0.63;;;13.80;99.90;;;;;;5044937;28;20045;-76
2022/10/24 03:37:28;;;;;;;1.95;0.60;;;13.80;99.90;;;;;;5028134;28;20064;-76
2022/10/24 03:39:55;;;;;;;1.67;0.75;;;13.80;99.90;;;;;;5046777;28;20583;-76
2022/10/24 03:42:22;;;;;;;1.15;0.45;;;13.80;99.90;;;;;;5045053;28;20068;-76
2022/10/24 03:44:48;;;;;;;0.50;0.40;;;13.80;99.90;;;;;;5045579;28;20527;-76
2022/10/24 03:47:15;;;;;;;1.15;0.95;;;13.80;99.90;;;;;;5045438;28;20063;-75
2022/10/24 03:49:42;;;;;;;0.50;0.43;;;13.70;99.90;;;;;;5046690;28;20129;-76
2022/10/24 03:52:09;;;;;;;1.38;0.60;;;13.70;99.90;;;;;;5044624;28;20045;-76
2022/10/24 03:54:37;;;;;;;1.35;0.60;;;13.70;99.90;;;;;;5046787;28;20463;-76
2022/10/24 03:57:04;;;;;;;1.02;0.50;;;13.70;99.90;;;;;;5044931;28;20403;-76
2022/10/24 03:59:31;;;;;;;0.98;0.60;;;13.70;99.90;;;;;;5045183;28;20048;-75
2022/10/24 04:01:59;;;;;;;2.58;0.65;;;13.70;99.90;;;;;;5043903;28;20053;-76
2022/10/24 04:04:26;;;;;;;2.10;0.82;;;13.70;99.90;;;;;;5046269;28;20163;-76
2022/10/24 04:06:53;;;;;;;0.80;0.70;;;13.70;99.90;;;;;;5044420;28;20057;-76
2022/10/24 04:09:20;;;;;;;0.98;0.73;;;13.60;99.90;;;;;;5046670;28;20045;-76
2022/10/24 04:11:47;;;;;;;0.93;0.65;;;13.70;99.90;;;;;;5046117;28;20049;-75
2022/10/24 04:14:14;;;;;;;1.25;0.88;;;13.70;99.90;;;;;;5041809;28;20152;-75
2022/10/24 04:16:41;;;;;;;1.70;0.70;;;13.70;99.90;;;;;;5024054;28;20056;-75
2022/10/24 04:19:09;;;;;;;1.60;0.90;;;13.60;99.90;;;;;;5008805;28;20132;-76
2022/10/24 04:21:36;;;;;;;2.35;0.88;;;13.60;99.90;;;;;;5024198;28;20409;-76
2022/10/24 04:24:03;;;;;;;1.05;0.70;;;13.60;99.90;;;;;;5024015;28;20618;-76
2022/10/24 04:26:30;;;;;;;2.42;0.80;;;13.60;99.90;;;;;;5044824;28;20400;-75
2022/10/24 04:28:57;;;;;;;1.08;0.80;;;13.50;99.90;;;;;;5045217;28;20497;-76
2022/10/24 04:31:23;;;;;;;2.13;1.20;;;13.50;99.90;;;;;;5044644;28;20051;-79
2022/10/24 04:33:50;;;;;;;1.67;0.80;;;13.50;99.90;;;;;;5041236;28;20060;-76
2022/10/24 04:36:17;;;;;;;1.90;0.85;;;13.50;99.90;;;;;;5027748;28;20515;-76
2022/10/24 04:38:49;;;;;;;2.05;0.98;;;13.50;99.90;;;;;;5050844;28;20391;-76
2022/10/24 04:41:16;;;;;;;1.83;1.10;;;13.50;99.90;;;;;;5048875;28;20051;-75
2022/10/24 04:43:42;;;;;;;2.15;0.93;;;13.50;99.90;;;;;;5053169;28;20047;-76
2022/10/24 04:46:09;;;;;;;1.08;0.70;;;13.50;99.90;;;;;;5048614;28;20053;-76
2022/10/24 04:48:36;;;;;;;2.13;1.17;;;13.40;99.90;;;;;;5039646;28;20505;-76
2022/10/24 04:51:03;;;;;;;1.50;1.10;;;13.40;99.90;;;;;;5046390;28;20441;-77
2022/10/24 04:53:30;;;;;;;0.95;0.70;;;13.40;99.90;;;;;;5056091;28;20049;-78
2022/10/24 04:55:56;;;;;;;0.55;0.55;;;13.40;99.90;;;;;;5047950;28;20484;-78
2022/10/24 04:58:23;;;;;;;1.13;0.75;;;13.30;99.90;;;;;;5045255;28;20661;-78
2022/10/24 05:00:50;;;;;;;3.22;1.33;;;13.30;99.90;;;;;;5027615;28;20537;-79
2022/10/24 05:03:17;;;;;;;0.98;0.60;;;13.20;99.90;;;;;;5031627;28;20049;-78
2022/10/24 05:05:44;;;;;;;1.65;1.00;;;13.20;99.90;;;;;;5048111;28;20520;-78
2022/10/24 05:08:11;;;;;;;1.00;0.63;;;13.20;99.90;;;;;;5045618;28;20044;-78
2022/10/24 05:10:38;;;;;;;0.40;0.40;;;13.10;99.90;;;;;;5032877;28;20048;-78
2022/10/24 05:13:05;;;;;;;0.70;0.60;;;13.10;99.90;;;;;;5046632;28;20045;-78
2022/10/24 05:15:31;;;;;;;1.40;0.70;;;13.10;99.90;;;;;;5045473;28;20063;-78
2022/10/24 05:17:59;;;;;;;0.57;0.50;;;13.10;99.90;;;;;;5041630;28;20365;-80
2022/10/24 05:20:25;;;;;;;1.90;0.60;;;13.20;99.90;;;;;;5045728;28;20052;-79
2022/10/24 05:22:52;;;;;;;1.50;0.45;;;13.20;99.90;;;;;;5041347;28;20430;-79
2022/10/24 05:25:19;;;;;;;1.95;0.80;;;13.20;99.90;;;;;;5039930;28;20622;-79
2022/10/24 05:27:46;;;;;;;0.98;0.57;;;13.20;99.90;;;;;;5042976;28;20045;-79
2022/10/24 05:30:13;;;;;;;1.23;0.70;;;13.20;99.90;;;;;;5044339;28;20041;-79
2022/10/24 05:32:40;;;;;;;0.88;0.60;;;13.20;99.90;;;;;;5044719;28;20053;-79
2022/10/24 05:35:07;;;;;;;1.00;0.70;;;13.20;99.90;;;;;;5028662;28;20057;-79
2022/10/24 05:37:34;;;;;;;0.40;0.40;;;13.20;99.90;;;;;;5048957;28;20087;-78
2022/10/24 05:40:01;;;;;;;2.10;0.68;;;13.20;99.90;;;;;;5052047;28;20052;-78
2022/10/24 05:42:28;;;;;;;0.98;0.55;;;13.20;99.90;;;;;;5030189;28;20044;-78
2022/10/24 05:44:55;;;;;;;0.95;0.70;;;13.20;99.90;;;;;;5046725;28;20132;-78
2022/10/24 05:47:22;;;;;;;0.80;0.50;;;13.30;99.90;;;;;;5051096;28;20036;-77
2022/10/24 05:49:53;;;;;;;0.30;0.30;;;13.20;99.90;;;;;;5027271;28;20147;-77
2022/10/24 05:52:20;;;;;;;1.25;0.40;;;13.20;99.90;;;;;;5023842;28;20149;-77
2022/10/24 05:54:47;;;;;;;0.47;0.40;;;13.20;99.90;;;;;;5046862;28;20083;-76
2022/10/24 05:57:31;;;;;;;3.03;1.13;;;13.10;99.90;;;;;;5032752;28;20049;-76
2022/10/24 05:59:59;;;;;;;0.85;0.43;;;13.10;99.90;;;;;;5048430;28;20063;-77
2022/10/24 06:02:26;;;;;;;1.40;0.65;;;13.10;99.90;;;;;;5038775;28;20404;-80
2022/10/24 06:04:54;;;;;;;1.88;0.50;;;13.00;99.90;;;;;;5046627;28;20064;-76
2022/10/24 06:07:21;;;;;;;0.95;0.40;;;13.00;99.90;;;;;;5043533;28;20151;-75
2022/10/24 06:09:48;;;;;;;0.43;0.43;;;12.90;99.90;;;;;;5034303;28;20056;-75
2022/10/24 06:12:15;;;;;;;1.23;0.60;;;12.80;99.90;;;;;;5025627;28;20593;-75
2022/10/24 06:14:43;;;;;;;0.55;0.38;;;12.80;99.90;;;;;;5040945;28;20105;-76
2022/10/24 06:17:10;;;;;;;0.77;0.50;;;12.80;99.90;;;;;;5036597;28;20629;-75
2022/10/24 06:19:38;;;;;;;0.82;0.50;;;12.70;99.90;;;;;;5059363;28;20480;-75
2022/10/24 06:22:05;;;;;;;1.75;0.60;;;12.70;99.90;;;;;;5040554;28;20138;-75
2022/10/24 06:24:36;;;;;;;1.23;0.60;;;12.70;99.90;;;;;;5040676;28;20045;-76
2022/10/24 06:27:03;;;;;;;0.63;0.60;;;12.60;99.90;;;;;;5040749;28;20045;-74
2022/10/24 06:29:30;;;;;;;1.45;0.52;;;12.60;99.90;;;;;;5034829;28;20053;-75
2022/10/24 06:31:57;;;;;;;0.57;0.50;;;12.60;99.90;;;;;;5021005;28;20111;-75
2022/10/24 06:34:24;;;;;;;0.75;0.40;;;12.60;99.90;;;;;;5039568;28;20053;-76
2022/10/24 06:36:51;;;;;;;0.65;0.50;;;12.60;99.90;;;;;;5042762;28;20049;-76
2022/10/24 06:39:18;;;;;;;0.90;0.50;;;12.60;99.90;;;;;;5044189;28;20138;-75
2022/10/24 06:41:44;;;;;;;1.88;0.43;;;12.60;99.90;;;;;;5028555;28;20139;-75
2022/10/24 06:44:11;;;;;;;0.88;0.50;;;12.50;99.90;;;;;;5041844;28;20050;-75
2022/10/24 06:46:38;;;;;;;0.52;0.52;;;12.50;99.90;;;;;;5022960;28;20049;-76
2022/10/24 06:49:05;;;;;;;1.60;0.60;;;12.50;99.90;;;;;;5026726;28;20049;-74
2022/10/24 06:51:31;;;;;;;0.43;0.40;;;12.50;99.90;;;;;;5026086;28;20512;-74
2022/10/24 06:53:58;;;;;;;1.60;0.70;;;12.50;99.90;;;;;;5025619;28;20241;-74
2022/10/24 06:56:25;;;;;;;1.00;0.60;;;12.50;99.90;;;;;;5009221;28;20063;-74
2022/10/24 06:58:52;;;;;;;1.25;0.70;;;12.50;99.90;;;;;;5027400;28;20493;-75
2022/10/24 07:01:20;;;;;;;1.17;0.60;;;12.50;99.90;;;;;;5044154;28;20509;-74
2022/10/24 07:03:47;;;;;;;0.47;0.47;;;12.50;99.90;;;;;;5021472;28;20389;-74
2022/10/24 07:06:22;;;;;;;0.45;0.45;;;12.50;99.90;;;;;;5005243;28;20434;-74
2022/10/24 07:08:50;;;;;;;0.50;0.50;;;12.50;99.90;;;;;;5026642;28;20072;-76
2022/10/24 07:11:17;;;;;;;0.60;0.45;;;12.50;99.90;;;;;;5044781;28;20063;-74
2022/10/24 07:13:44;;;;;;;0.73;0.40;;;12.50;99.90;;;;;;5025326;28;20049;-74
2022/10/24 07:16:10;;;;;;;1.08;0.50;;;12.50;99.90;;;;;;5024947;28;20075;-74
2022/10/24 07:18:37;;;;;;;1.83;0.68;;;12.60;99.90;;;;;;5009104;28;20062;-74
2022/10/24 07:21:10;;;;;;;0.60;0.50;;;12.60;99.90;;;;;;5027367;28;20045;-76
2022/10/24 07:23:36;;;;;;;0.60;0.60;;;12.60;99.90;;;;;;5024138;28;20516;-76
2022/10/24 07:26:05;;;;;;;0.40;0.40;;;12.60;99.90;;;;;;5008694;28;20144;-77
2022/10/24 07:28:32;;;;;;;0.40;0.40;;;12.60;99.90;;;;;;5024639;28;20042;-77
2022/10/24 07:30:58;;;;;;;0.50;0.47;;;12.70;99.90;;;;;;5025073;28;20168;-77
2022/10/24 07:33:25;;;;;;;0.77;0.50;;;12.70;99.90;;;;;;5037529;28;20045;-77
2022/10/24 07:35:52;;;;;;;0.55;0.40;;;12.70;99.90;;;;;;5043862;28;20059;-76
2022/10/24 07:38:19;;;;;;;1.42;0.60;;;12.70;99.90;;;;;;5027704;28;20055;-76
2022/10/24 07:40:46;;;;;;;1.70;0.60;;;12.80;99.90;;;;;;5024900;28;20128;-76
2022/10/24 07:43:12;;;;;;;1.17;0.50;;;12.80;99.90;;;;;;5034335;28;20041;-76
2022/10/24 07:45:40;;;;;;;0.47;0.45;;;12.80;99.90;;;;;;5044496;28;20377;-76
2022/10/24 07:48:07;;;;;;;1.90;0.68;;;12.90;99.90;;;;;;5043787;28;20059;-77
2022/10/24 07:50:34;;;;;;;1.08;0.65;;;12.90;99.90;;;;;;5023406;28;20061;-77
2022/10/24 07:53:01;;;;;;;0.93;0.50;;;12.90;99.90;;;;;;5032168;28;20056;-77
2022/10/24 07:55:28;;;;;;;1.63;0.55;;;13.00;99.90;;;;;;5044294;28;20460;-77
2022/10/24 07:57:55;;;;;;;1.13;0.80;;;13.00;99.90;;;;;;5044283;28;20124;-77
2022/10/24 08:00:22;;;;;;;0.47;0.47;;;13.00;99.90;;;;;;5045342;28;20052;-77
2022/10/24 08:02:48;;;;;;;0.60;0.50;;;13.10;99.90;;;;;;5044556;28;20049;-77
2022/10/24 08:05:20;;;;;;;1.27;0.45;;;13.10;99.90;;;;;;5043388;28;20275;-77
2022/10/24 08:07:49;;;;;;;0.45;0.45;;;13.20;99.90;;;;;;5027132;28;20051;-76
2022/10/24 08:10:25;;;;;;;0.68;0.40;;;13.20;99.90;;;;;;5038587;28;20071;-76
2022/10/24 08:12:52;;;;;;;0.68;0.50;;;13.20;99.90;;;;;;5023638;28;20409;-77
2022/10/24 08:15:19;;;;;;;1.88;0.70;;;13.20;99.90;;;;;;5023862;28;20064;-76
2022/10/24 08:17:46;;;;;;;1.42;0.63;;;13.20;99.90;;;;;;5022906;28;20144;-77
2022/10/24 08:20:13;;;;;;;0.55;0.43;;;13.30;99.90;;;;;;5037468;28;20148;-77
2022/10/24 08:22:40;;;;;;;1.42;0.70;;;13.30;99.90;;;;;;5042057;28;20046;-77
2022/10/24 08:25:09;;;;;;;1.73;0.70;;;13.30;99.90;;;;;;5041606;28;20081;-76
2022/10/24 08:27:35;;;;;;;1.42;0.50;;;13.40;99.90;;;;;;5041057;28;20397;-77
2022/10/24 08:30:03;;;;;;;1.13;0.50;;;13.40;99.90;;;;;;5039511;28;20057;-77
2022/10/24 08:32:30;;;;;;;1.17;0.50;;;13.40;99.90;;;;;;5028119;28;20068;-77
2022/10/24 08:34:57;;;;;;;1.13;0.57;;;13.50;99.90;;;;;;5027213;28;20103;-77
2022/10/24 08:37:23;;;;;;;1.00;0.57;;;13.50;99.90;;;;;;5047293;28;20040;-77
2022/10/24 08:39:54;;;;;;;0.50;0.50;;;13.60;99.90;;;;;;5029499;28;20120;-77
2022/10/24 08:42:22;;;;;;;1.23;0.70;;;13.70;99.90;;;;;;5042268;28;20086;-77
2022/10/24 08:44:49;;;;;;;3.03;1.10;;;13.70;99.90;;;;;;5027051;28;20084;-77
2022/10/24 08:47:41;;;;;;;0.82;0.57;;;13.80;99.90;;;;;;5026541;28;20084;-77
2022/10/24 08:50:16;;;;;;;3.00;0.80;;;13.90;99.90;;;;;;5030117;28;20062;-77
2022/10/24 08:53:05;;;;;;;1.08;0.65;;;13.90;99.90;;;;;;5024660;28;20072;-75
2022/10/24 08:55:39;;;;;;;1.60;0.70;;;14.00;99.90;;;;;;5027498;28;20055;-75
2022/10/24 08:58:16;;;;;;;;;;;14.20;99.90;;;;;;5055722;28;20060;-76
2022/10/24 09:00:44;;;;;;;0.88;0.60;;;14.20;99.90;;;;;;5032832;28;20310;-77
2022/10/24 09:03:21;;;;;;;2.75;0.90;;;14.30;99.90;;;;;;4992888;28;20053;-75
2022/10/24 09:06:17;;;;;;;0.95;0.57;;;14.50;99.90;;;;;;5025195;28;20115;-75
2022/10/24 09:09:04;;;;;;;0.52;0.40;;;14.70;99.90;;;;;;5002844;28;20053;-75
2022/10/24 09:11:44;;;;;;;1.80;0.70;;;14.80;99.90;;;;;;5037039;28;20049;-75
2022/10/24 09:14:18;;;;;;;1.23;0.95;;;14.80;99.90;;;;;;5018518;28;20049;-75
2022/10/24 09:16:59;;;;;;;1.45;0.65;;;14.90;99.90;;;;;;5037631;28;20083;-75
2022/10/24 09:19:27;;;;;;;1.17;0.65;;;14.90;99.90;;;;;;5036359;28;20556;-76
2022/10/24 09:21:54;;;;;;;2.20;0.70;;;14.80;99.90;;;;;;5004073;28;20083;-75
2022/10/24 09:24:59;;;;;;;2.42;0.90;;;14.80;99.90;;;;;;5020901;28;20045;-75
2022/10/24 09:27:32;;;;;;;2.85;0.70;;;14.80;99.90;;;;;;5024360;28;20052;-76
2022/10/24 09:29:58;;;;;;;2.35;0.85;;;14.70;99.90;;;;;;5026132;28;20132;-76
2022/10/24 09:32:29;;;;;;;1.58;0.80;;;14.80;99.90;;;;;;5042528;28;20405;-75
2022/10/24 09:35:07;;;;;;;1.48;0.85;;;14.80;99.90;;;;;;5044694;28;20091;-76
2022/10/24 09:37:44;;;;;;;0.75;0.50;;;14.90;99.90;;;;;;5046295;28;20059;-75
2022/10/24 09:40:24;;;;;;;1.98;0.73;;;14.90;99.90;;;;;;5048198;28;20088;-76
2022/10/24 09:43:17;;;;;;;1.92;0.68;;;14.90;99.90;;;;;;5026588;28;20045;-76
2022/10/24 09:46:11;;;;;;;1.55;0.60;;;15.00;99.90;;;;;;5012508;28;20049;-76
2022/10/24 09:48:53;;;;;;;2.08;0.80;;;15.00;99.90;;;;;;5021003;28;20041;-76
2022/10/24 09:51:34;;;;;;;1.08;0.70;;;15.20;99.90;;;;;;5006499;28;20068;-76
2022/10/24 09:54:22;;;;;;;1.52;0.70;;;15.20;99.90;;;;;;5022885;28;20055;-75
2022/10/24 09:57:12;;;;;;;2.00;0.70;;;15.30;99.90;;;;;;5026854;28;20050;-76
2022/10/24 09:59:49;;;;;;;1.85;0.65;;;15.40;99.90;;;;;;5032990;28;20049;-76
2022/10/24 10:02:24;;;;;;;0.45;0.40;;;15.50;99.90;;;;;;5045275;28;20469;-76
2022/10/24 10:05:03;;;;;;;3.03;0.90;;;15.60;99.90;;;;;;5026330;28;20062;-76
2022/10/24 10:07:38;;;;;;;2.28;0.82;;;15.60;99.90;;;;;;5044046;28;20113;-76
2022/10/24 10:10:17;;;;;;;2.58;0.80;;;15.60;99.90;;;;;;5021969;28;20067;-76
2022/10/24 10:12:46;;;;;;;2.00;0.70;;;15.60;99.90;;;;;;5043360;28;20576;-76
2022/10/24 10:15:31;;;;;;;1.40;0.80;;;15.50;99.90;;;;;;5039339;28;20144;-76
2022/10/24 10:18:00;;;;;;;2.65;0.93;;;15.60;99.90;;;;;;5044114;28;20516;-76
2022/10/24 10:20:41;;;;;;;2.55;0.90;;;15.60;99.90;;;;;;5058541;28;20060;-76
2022/10/24 10:23:31;;;;;;;2.97;0.85;;;15.50;99.90;;;;;;5042715;28;20080;-76
2022/10/24 10:26:10;;;;;;;4.00;1.00;;;15.50;99.90;;;;;;5041161;28;20149;-77
2022/10/24 10:29:00;;;;;;;4.53;0.93;;;15.50;99.90;;;;;;5041772;28;20048;-77
2022/10/24 10:31:38;;;;;;;1.98;0.85;;;15.50;99.90;;;;;;5031928;28;20067;-77
2022/10/24 10:34:14;;;;;;;3.38;1.08;;;15.60;99.90;;;;;;5069935;28;20048;-77
2022/10/24 10:37:05;;;;;;;1.58;0.95;;;15.60;99.90;;;;;;5024514;28;20046;-77
2022/10/24 10:39:44;;;;;;;2.70;0.88;;;15.70;99.90;;;;;;5034451;28;20067;-76
2022/10/24 10:42:26;;;;;;;2.15;0.80;;;15.80;99.90;;;;;;5044715;28;20053;-77
2022/10/24 10:44:58;;;;;;;1.50;0.70;;;16.00;99.90;;;;;;5043938;28;20057;-76
2022/10/24 10:47:41;;;;;;;1.85;0.80;;;16.10;99.90;;;;;;5044577;28;20507;-76
2022/10/24 10:50:36;;;;;;;1.77;0.88;;;16.20;99.90;;;;;;5043651;28;20053;-76
2022/10/24 10:53:42;;;;;;;1.42;0.68;;;16.30;99.90;;;;;;5014617;28;20053;-76
2022/10/24 10:56:15;;;;;;;1.90;0.90;;;16.40;99.90;;;;;;5014676;28;20409;-76
2022/10/24 10:58:48;;;;;;;1.23;0.70;;;16.50;99.90;;;;;;5040875;28;20440;-76
2022/10/24 11:01:33;;;;;;;0.85;0.50;;;16.60;99.90;;;;;;5042124;28;20194;-77
2022/10/24 11:04:28;;;;;;;1.05;0.57;;;16.70;99.90;;;;;;5044606;28;20057;-76
2022/10/24 11:07:04;;;;;;;1.35;0.70;;;16.80;99.90;;;;;;5038804;28;20164;-77
2022/10/24 11:09:35;;;;;;;1.60;0.75;;;16.90;99.90;;;;;;5043300;28;20084;-77
2022/10/24 11:12:29;;;;;;;2.28;0.70;;;17.10;99.90;;;;;;5059986;28;20048;-77
2022/10/24 11:15:07;;;;;;;2.03;0.80;;;17.30;99.90;;;;;;5049391;28;20500;-77
2022/10/24 11:17:45;;;;;;;2.22;0.90;;;17.40;99.90;;;;;;5043659;28;20057;-77
2022/10/24 11:20:43;;;;;;;2.00;0.60;;;17.50;99.90;;;;;;5040681;28;20136;-77
2022/10/24 11:23:24;;;;;;;2.13;1.13;;;17.40;99.90;;;;;;5031893;28;20045;-77
2022/10/24 11:26:08;;;;;;;1.38;0.68;;;17.20;99.90;;;;;;5037429;28;20500;-76
2022/10/24 11:29:14;;;;;;;1.60;0.70;;;17.20;99.90;;;;;;5051206;28;20554;-77
2022/10/24 11:32:06;;;;;;;1.73;0.70;;;17.20;99.90;;;;;;4995495;28;20049;-77
2022/10/24 11:34:53;;;;;;;1.17;0.50;;;17.40;99.90;;;;;;5042412;28;20057;-77
2022/10/24 11:37:26;;;;;;;2.92;0.85;;;17.70;99.90;;;;;;5042531;28;20053;-77
2022/10/24 11:40:12;;;;;;;;;;;18.00;99.90;;;;;;5054075;28;20076;-77
2022/10/24 11:42:59;;;;;;;1.25;0.60;;;18.30;99.90;;;;;;5051517;28;19951;-77
2022/10/24 11:45:37;;;;;;;1.38;0.60;;;18.60;99.90;;;;;;5045424;28;20076;-77
2022/10/24 11:48:20;;;;;;;2.53;0.90;;;18.80;99.90;;;;;;5030284;28;20051;-77
2022/10/24 11:51:02;;;;;;;1.17;0.63;;;19.00;99.90;;;;;;5039118;28;20061;-78
2022/10/24 11:53:32;;;;;;;1.45;0.80;;;19.20;99.90;;;;;;5039091;28;20180;-78
2022/10/24 11:56:23;;;;;;;2.67;1.00;;;19.40;99.90;;;;;;5042171;28;20053;-77
2022/10/24 11:59:02;;;;;;;2.00;0.90;;;19.40;99.90;;;;;;5044581;28;20045;-78
2022/10/24 12:01:35;;;;;;;3.08;0.65;;;19.40;99.90;;;;;;5042432;28;20132;-78
2022/10/24 12:04:16;;;;;;;0.95;0.65;;;19.50;99.90;;;;;;5041904;28;20132;-78
2022/10/24 12:07:05;;;;;;;1.02;0.57;;;19.70;99.90;;;;;;5036567;28;20405;-78
2022/10/24 12:09:49;;;;;;;2.17;1.10;;;19.80;99.90;;;;;;5027714;28;20049;-77
2022/10/24 12:12:27;;;;;;;2.05;1.10;;;19.80;99.90;;;;;;5027048;28;20128;-77
2022/10/24 12:15:20;;;;;;;2.45;1.00;;;19.70;99.90;;;;;;5044122;28;20059;-77
2022/10/24 12:18:04;;;;;;;1.92;0.90;;;19.90;99.90;;;;;;5032247;28;20048;-77
2022/10/24 12:20:30;;;;;;;3.40;1.17;;;20.20;99.90;;;;;;5048192;28;20048;-77
2022/10/24 12:22:58;;;;;;;2.83;0.95;;;20.30;99.90;;;;;;5025738;28;20060;-76
2022/10/24 12:25:37;;;;;;;1.65;0.88;;;20.50;99.90;;;;;;5046642;28;20083;-76
2022/10/24 12:28:17;;;;;;;2.17;1.20;;;20.90;99.90;;;;;;5048798;28;20877;-76
2022/10/24 12:30:43;;;;;;;3.05;1.20;;;21.10;99.90;;;;;;5016227;28;20048;-76
2022/10/24 12:33:31;;;;;;;2.15;1.08;;;20.80;99.90;;;;;;5032744;28;20090;-76
2022/10/24 12:35:58;;;;;;;2.15;1.13;;;20.70;99.90;;;;;;5041628;28;20067;-76
2022/10/24 12:38:27;;;;;;;2.33;0.93;;;20.30;99.90;;;;;;5043634;28;20049;-76
2022/10/24 12:41:08;;;;;;;2.65;0.80;;;20.00;99.90;;;;;;5044889;28;20057;-76
2022/10/24 12:43:39;;;;;;;2.25;0.95;;;19.70;99.90;;;;;;5044716;28;20057;-77
2022/10/24 12:46:33;;;;;;;2.25;0.95;;;19.30;99.90;;;;;;5044567;28;20563;-77
2022/10/24 12:48:59;;;;;;;2.88;1.08;;;19.50;99.90;;;;;;5044160;28;20067;-77
2022/10/24 12:51:39;;;;;;;1.58;0.90;;;19.30;99.90;;;;;;5044197;28;20158;-77
2022/10/24 12:54:12;;;;;;;3.15;1.27;;;19.30;99.90;;;;;;5039485;28;20052;-77
2022/10/24 12:56:47;;;;;;;;;;;19.90;99.90;;;;;;5050852;28;20275;-77
2022/10/24 12:59:27;;;;;;;2.05;0.90;;;20.30;99.90;;;;;;5041720;28;19924;-77
2022/10/24 13:02:12;;;;;;;2.38;1.10;;;20.50;99.90;;;;;;5053231;28;20052;-77
2022/10/24 13:05:09;;;;;;;2.35;0.90;;;20.80;99.90;;;;;;5043363;28;20144;-77
2022/10/24 13:07:39;;;;;;;2.53;1.10;;;21.50;99.90;;;;;;5044839;28;20183;-77
2022/10/24 13:10:43;;;;;;;3.42;1.30;;;22.10;99.90;;;;;;5040112;28;20053;-77
2022/10/24 13:13:23;;;;;;;4.35;2.03;;;22.40;99.90;;;;;;5043123;28;20106;-77
2022/10/24 13:16:05;;;;;;;4.10;1.98;;;22.50;99.90;;;;;;5067738;28;20063;-77